This is the latest recevied weather packets stored in our database for station/object HK4D-15. If no packets are shown the sender has not sent any weather packets the latest 10 day(s).
| Time | Temp. | Humidity | Pressure | Rain* | Wind** | Luminosity | Snow |
|---|---|---|---|---|---|---|---|
| 1778115944 | 16.11° C | 78% | 1016 hPa | 0 mm | - | - | - |
| 1778115283 | 17.78° C | 69% | 1016 hPa | 0 mm | - | - | - |
| 1778114621 | 17.78° C | 69% | 1016 hPa | 0 mm | - | - | - |
| 1778113959 | 17.78° C | 72% | 1016 hPa | 0 mm | - | - | - |
| 1778113299 | 17.78° C | 72% | 1015 hPa | 0 mm | - | - | - |
| 1778112638 | 17.78° C | 72% | 1015 hPa | 0 mm | - | - | - |
| 1778111977 | 20° C | 56% | 1015 hPa | 0 mm | - | - | - |
| 1778111317 | 20° C | 56% | 1015 hPa | 0 mm | - | - | - |
| 1778110656 | 20° C | 56% | 1015 hPa | 0 mm | - | - | - |
| 1778109996 | 20° C | 56% | 1014 hPa | 0 mm | - | - | - |
| 1778109335 | 20° C | 56% | 1014 hPa | 0 mm | - | - | - |
| 1778108673 | 21.11° C | 49% | 1014 hPa | 0 mm | - | - | - |
| 1778108013 | 21.11° C | 49% | 1014 hPa | 0 mm | - | - | - |
| 1778107352 | 21.11° C | 49% | 1013 hPa | 0 mm | - | - | - |
| 1778106692 | 20.56° C | 48% | 1013 hPa | 0 mm | - | - | - |
| 1778106033 | 20.56° C | 47% | 1012 hPa | 0 mm | - | - | - |
| 1778105368 | 20.56° C | 46% | 1012 hPa | 0 mm | - | - | - |
| 1778104707 | 22.78° C | 43% | 1012 hPa | 0 mm | - | - | - |
| 1778104046 | 22.78° C | 43% | 1012 hPa | 0 mm | - | - | - |
| 1778103386 | 23.33° C | 44% | 1011 hPa | 0 mm | - | - | - |
| 1778102725 | 23.33° C | 44% | 1010 hPa | 0 mm | - | - | - |
| 1778101342 | 23.33° C | 44% | 1010 hPa | 0 mm | - | - | - |
| 1778100679 | 23.33° C | 44% | 1010 hPa | 0 mm | - | - | - |
| 1778100019 | 23.33° C | 45% | 1011 hPa | 0 mm | - | - | - |
| 1778099358 | 23.33° C | 46% | 1010 hPa | 0 mm | - | - | - |
* Rain latest hour (hover to see other rain measurements)
** Current wind speed in m/s (hover to see current wind gust speed)